createdAt,value
2019-03-31T00:00:36.062Z,53.31
2019-03-31T00:01:36.048Z,53.61
2019-03-31T00:02:36.029Z,53.72
2019-03-31T00:03:36.015Z,53.82
2019-03-31T00:04:36.004Z,53.20
2019-03-31T00:05:37.382Z,53.03
2019-03-31T00:06:36.015Z,53.64
2019-03-31T00:07:35.972Z,53.23
2019-03-31T00:08:35.962Z,53.64
2019-03-31T00:09:35.954Z,53.85
2019-03-31T00:10:35.937Z,53.54
2019-03-31T00:11:35.947Z,53.74
2019-03-31T00:12:35.924Z,53.64
2019-03-31T00:13:35.924Z,53.64
2019-03-31T00:14:35.893Z,53.74
2019-03-31T00:15:35.885Z,53.66
2019-03-31T00:16:35.878Z,53.85
2019-03-31T00:17:35.877Z,53.03
2019-03-31T00:18:35.872Z,53.74
2019-03-31T00:19:35.850Z,53.23
2019-03-31T00:20:35.835Z,52.92
2019-03-31T00:21:35.817Z,53.54
2019-03-31T00:22:35.812Z,53.54
2019-03-31T00:23:35.816Z,53.44
2019-03-31T00:24:35.791Z,53.56
2019-03-31T00:25:35.789Z,53.44
2019-03-31T00:26:35.763Z,53.44
2019-03-31T00:27:35.776Z,53.66
2019-03-31T00:28:35.744Z,53.44
2019-03-31T00:29:35.752Z,53.44
2019-03-31T04:00:32.589Z,53.48
2019-03-31T04:01:32.561Z,53.48
2019-03-31T04:02:32.574Z,53.27
2019-03-31T04:03:32.536Z,53.58
2019-03-31T04:04:32.525Z,53.58
2019-03-31T04:05:32.520Z,53.97
2019-03-31T04:06:32.528Z,53.86
2019-03-31T04:07:32.497Z,53.94
2019-03-31T04:08:32.515Z,53.63
2019-03-31T04:09:32.471Z,53.22
2019-03-31T04:10:32.473Z,53.33
2019-03-31T04:11:32.454Z,53.50
2019-03-31T04:12:32.467Z,53.50
2019-03-31T04:13:32.451Z,53.09
2019-03-31T04:14:32.432Z,53.30
2019-03-31T04:15:32.414Z,53.07
2019-03-31T04:16:32.400Z,53.28
2019-03-31T04:17:32.410Z,53.17
2019-03-31T04:18:32.398Z,53.38
2019-03-31T04:19:32.389Z,53.35
2019-03-31T04:20:32.362Z,53.28
2019-03-31T04:21:32.346Z,52.73
2019-03-31T04:22:32.342Z,53.45
2019-03-31T04:23:32.330Z,53.05
2019-03-31T04:24:32.363Z,53.35
2019-03-31T04:25:32.308Z,53.35
2019-03-31T04:26:32.295Z,53.64
2019-03-31T04:27:32.308Z,53.02
2019-03-31T04:28:32.297Z,53.02
2019-03-31T04:29:32.260Z,53.23
2019-03-31T04:30:32.276Z,53.12
2019-03-31T04:31:32.242Z,52.81
2019-03-31T04:32:32.233Z,53.02
2019-03-31T04:33:49.634Z,52.92
2019-03-31T04:34:33.231Z,52.69
2019-03-31T04:35:32.238Z,52.69
2019-03-31T04:36:32.218Z,53.10
2019-03-31T04:37:32.179Z,52.69
2019-03-31T04:38:32.170Z,53.20
2019-03-31T04:39:32.159Z,52.69
2019-03-31T04:40:32.142Z,52.89
2019-03-31T04:41:32.149Z,52.89
2019-03-31T04:42:32.149Z,52.79
2019-03-31T04:43:32.119Z,52.89
2019-03-31T04:44:32.108Z,53.00
2019-03-31T04:45:32.096Z,53.10
2019-03-31T04:46:32.103Z,52.89
2019-03-31T04:47:32.082Z,52.79
2019-03-31T04:48:32.070Z,52.79
2019-03-31T04:49:32.092Z,53.08
2019-03-31T04:50:32.043Z,52.87
2019-03-31T04:51:32.049Z,52.79
2019-03-31T04:52:32.043Z,52.87
2019-03-31T04:53:32.011Z,52.66
2019-03-31T04:54:31.999Z,52.87
2019-03-31T04:55:31.987Z,51.95
2019-03-31T04:56:31.978Z,52.46
2019-03-31T04:57:32.021Z,51.82
2019-03-31T04:58:31.951Z,52.15
2019-03-31T04:59:31.947Z,51.72
2019-03-31T05:00:31.934Z,52.12
2019-03-31T05:01:31.925Z,51.92
2019-03-31T05:02:31.915Z,51.82
2019-03-31T05:03:31.945Z,52.33
2019-03-31T05:04:31.889Z,51.82
2019-03-31T05:05:31.883Z,52.33
2019-03-31T05:06:31.866Z,52.23
2019-03-31T05:07:31.880Z,52.33
2019-03-31T05:08:31.850Z,51.90
2019-03-31T05:09:31.841Z,52.10
2019-03-31T05:10:31.847Z,52.02
2019-03-31T05:11:31.825Z,52.23
2019-03-31T05:12:31.809Z,52.00
2019-03-31T05:13:31.818Z,52.00
2019-03-31T05:14:31.788Z,52.00
2019-03-31T05:15:31.772Z,51.79
2019-03-31T05:16:31.766Z,52.61
2019-03-31T05:17:31.779Z,52.41
2019-03-31T05:18:31.762Z,51.69
2019-03-31T05:19:31.747Z,52.08
2019-03-31T05:20:31.729Z,51.28
2019-03-31T05:21:31.731Z,51.98
2019-03-31T05:22:31.703Z,51.26
2019-03-31T05:23:31.690Z,51.77
2019-03-31T05:24:31.693Z,51.26
2019-03-31T05:25:31.710Z,51.36
2019-03-31T05:26:31.664Z,51.15
2019-03-31T05:27:31.645Z,50.95
2019-03-31T05:28:31.639Z,51.26
2019-03-31T05:29:31.622Z,50.95
2019-03-31T05:30:31.626Z,51.15
2019-03-31T05:31:31.626Z,50.52
2019-03-31T05:32:31.616Z,50.93
2019-03-31T05:33:31.584Z,50.82
2019-03-31T05:34:31.574Z,50.93
2019-03-31T05:35:31.560Z,51.03
2019-03-31T05:36:31.548Z,51.01
2019-03-31T05:37:31.552Z,50.80
2019-03-31T05:38:31.552Z,50.90
2019-03-31T05:39:31.522Z,51.31
2019-03-31T05:40:31.513Z,50.59
2019-03-31T05:41:31.511Z,50.78
2019-03-31T05:42:31.496Z,50.39
2019-03-31T05:43:31.479Z,50.70
2019-03-31T05:44:31.467Z,50.57
2019-03-31T05:45:31.479Z,50.06
2019-03-31T05:46:31.464Z,49.11
2019-03-31T05:47:31.435Z,50.01
2019-03-31T05:48:31.421Z,48.99
2019-03-31T05:49:31.418Z,48.97
2019-03-31T05:50:31.395Z,48.23
2019-03-31T05:51:31.431Z,48.41
2019-03-31T05:52:31.380Z,47.98
2019-03-31T05:53:31.367Z,47.75
2019-03-31T05:54:31.360Z,46.92
2019-03-31T05:55:31.342Z,46.92
2019-03-31T05:56:31.334Z,47.30
2019-03-31T05:57:31.364Z,46.97
2019-03-31T05:58:31.316Z,45.85
2019-03-31T05:59:31.303Z,46.44
2019-03-31T06:00:31.291Z,46.14
2019-03-31T06:01:31.280Z,45.30
2019-03-31T06:02:31.266Z,45.68
2019-03-31T06:03:31.298Z,45.79
2019-03-31T06:04:33.338Z,45.59
2019-03-31T06:05:31.242Z,45.26
2019-03-31T06:06:31.236Z,45.59
2019-03-31T06:07:31.233Z,45.56
2019-03-31T06:08:31.222Z,45.44
2019-03-31T06:09:31.225Z,45.64
2019-03-31T06:10:31.182Z,45.34
2019-03-31T06:11:31.180Z,45.62
2019-03-31T06:12:31.183Z,44.68
2019-03-31T06:13:31.155Z,43.85
2019-03-31T06:14:31.146Z,44.13
2019-03-31T06:15:31.160Z,44.12
2019-03-31T06:16:31.122Z,43.38
2019-03-31T06:17:31.111Z,43.79
2019-03-31T06:18:31.130Z,42.66
2019-03-31T06:19:31.087Z,43.26
2019-03-31T06:20:31.075Z,43.04
2019-03-31T06:21:31.095Z,42.23
2019-03-31T06:22:31.057Z,42.72
2019-03-31T06:23:31.050Z,42.31
2019-03-31T06:24:31.054Z,42.19
2019-03-31T06:25:31.061Z,42.19
2019-03-31T06:26:31.020Z,42.07
2019-03-31T06:27:31.002Z,42.25
2019-03-31T06:28:31.018Z,41.95
2019-03-31T06:29:31.005Z,41.75
2019-03-31T06:30:30.981Z,41.32
2019-03-31T06:31:30.957Z,41.73
2019-03-31T06:32:30.950Z,41.41
2019-03-31T06:33:30.937Z,41.20
2019-03-31T06:34:30.935Z,41.50
2019-03-31T06:35:30.939Z,41.18
2019-03-31T06:36:30.907Z,41.08
2019-03-31T06:37:30.897Z,41.18
2019-03-31T06:38:30.888Z,41.27
2019-03-31T06:39:34.122Z,41.06
2019-03-31T06:40:30.915Z,40.86
2019-03-31T06:41:30.850Z,41.49
2019-03-31T06:42:30.837Z,42.19
2019-03-31T06:43:30.835Z,41.91
2019-03-31T06:44:30.821Z,42.84
2019-03-31T06:45:30.808Z,43.06
2019-03-31T06:46:30.821Z,43.69
2019-03-31T06:47:30.805Z,43.69
2019-03-31T06:48:30.780Z,43.61
2019-03-31T06:49:30.765Z,43.20
2019-03-31T06:50:30.764Z,44.01
2019-03-31T06:51:30.759Z,43.61
2019-03-31T06:52:30.734Z,43.41
2019-03-31T06:53:30.723Z,43.41
2019-03-31T06:54:30.708Z,43.20
2019-03-31T06:55:30.705Z,43.91
2019-03-31T06:56:30.708Z,44.12
2019-03-31T06:57:30.680Z,43.20
2019-03-31T06:58:30.671Z,43.20
2019-03-31T06:59:30.657Z,44.09
2019-03-31T07:00:30.655Z,43.29
2019-03-31T07:01:30.659Z,43.79
2019-03-31T07:02:30.637Z,43.79
2019-03-31T07:03:30.613Z,43.87
2019-03-31T07:04:30.651Z,43.18
2019-03-31T07:05:30.590Z,43.99
2019-03-31T07:06:30.597Z,44.01
2019-03-31T07:07:30.600Z,43.91
2019-03-31T07:08:30.558Z,44.21
2019-03-31T07:09:30.551Z,44.12
2019-03-31T07:10:30.545Z,44.42
2019-03-31T07:11:30.569Z,44.64
2019-03-31T07:12:30.531Z,44.54
2019-03-31T07:13:30.504Z,45.37
2019-03-31T07:14:30.509Z,45.27
2019-03-31T07:15:30.501Z,45.37
2019-03-31T07:16:30.475Z,45.27
2019-03-31T07:17:30.483Z,45.17
2019-03-31T07:18:30.452Z,45.57
2019-03-31T07:19:30.443Z,45.78
2019-03-31T07:20:30.436Z,45.37
2019-03-31T07:21:30.425Z,44.64
2019-03-31T07:22:30.409Z,44.52
2019-03-31T07:23:30.425Z,44.42
2019-03-31T07:24:30.385Z,44.07
2019-03-31T07:25:30.376Z,44.17
2019-03-31T07:26:30.427Z,43.75
2019-03-31T07:27:30.382Z,43.63
2019-03-31T07:28:30.361Z,43.52
2019-03-31T07:29:30.334Z,43.02
2019-03-31T07:30:30.323Z,42.80
2019-03-31T07:31:30.307Z,42.90
2019-03-31T07:32:30.315Z,43.40
2019-03-31T07:33:30.309Z,43.71
2019-03-31T07:34:30.280Z,43.52
2019-03-31T07:35:30.263Z,43.02
2019-03-31T07:36:30.266Z,43.80
2019-03-31T07:37:30.243Z,43.60
2019-03-31T07:38:38.661Z,43.12
2019-03-31T07:39:31.250Z,43.93
2019-03-31T07:40:30.523Z,43.55
2019-03-31T07:41:30.380Z,43.95
2019-03-31T07:42:30.324Z,43.87
2019-03-31T07:43:30.176Z,43.95
2019-03-31T07:44:30.168Z,43.57
2019-03-31T07:45:30.176Z,43.97
2019-03-31T07:46:30.183Z,42.82
2019-03-31T07:47:30.139Z,43.40
2019-03-31T07:48:30.126Z,43.18
2019-03-31T07:49:30.170Z,42.13
2019-03-31T07:50:30.109Z,41.71
2019-03-31T07:51:30.116Z,42.30
2019-03-31T07:52:30.092Z,41.15
2019-03-31T07:53:30.070Z,41.13
2019-03-31T07:54:30.078Z,41.03
2019-03-31T07:55:30.049Z,40.91
2019-03-31T07:56:30.050Z,41.19
2019-03-31T07:57:30.056Z,41.29
2019-03-31T07:58:30.015Z,41.47
2019-03-31T07:59:30.078Z,41.37
2019-03-31T08:00:29.997Z,41.37
2019-03-31T08:01:29.984Z,41.17
2019-03-31T08:02:30.044Z,40.57
2019-03-31T08:03:29.969Z,40.87
2019-03-31T08:04:29.997Z,40.67
2019-03-31T08:05:33.494Z,41.09
2019-03-31T08:06:30.943Z,41.89
2019-03-31T08:07:29.918Z,41.61
2019-03-31T08:08:29.921Z,42.13
2019-03-31T08:09:29.916Z,41.93
2019-03-31T08:10:29.972Z,43.08
2019-03-31T08:11:29.880Z,42.98
2019-03-31T08:12:29.899Z,42.50
2019-03-31T08:13:29.874Z,43.10
2019-03-31T08:14:29.859Z,43.52
2019-03-31T08:15:29.834Z,43.42
2019-03-31T08:16:29.823Z,43.52
2019-03-31T08:17:29.901Z,43.42
2019-03-31T08:18:29.801Z,43.52
2019-03-31T08:19:29.794Z,43.42
2019-03-31T08:20:29.785Z,42.92
2019-03-31T08:21:29.792Z,43.44
2019-03-31T08:22:29.754Z,43.02
2019-03-31T08:23:29.791Z,43.57
2019-03-31T08:24:29.793Z,42.94
2019-03-31T08:25:29.729Z,43.06
2019-03-31T08:26:29.719Z,43.46
2019-03-31T08:27:29.717Z,43.79
2019-03-31T08:28:29.692Z,43.91
2019-03-31T08:29:29.691Z,44.74
2019-03-31T08:30:29.674Z,44.86
2019-03-31T08:31:29.678Z,44.98
2019-03-31T08:32:29.671Z,45.31
2019-03-31T08:33:29.641Z,45.65
2019-03-31T08:34:29.660Z,45.57
2019-03-31T08:35:29.632Z,47.02
2019-03-31T08:36:29.607Z,46.61
2019-03-31T08:37:29.614Z,47.16
2019-03-31T08:38:29.593Z,47.18
2019-03-31T08:39:29.570Z,47.69
2019-03-31T08:40:29.563Z,47.30
2019-03-31T08:41:29.577Z,48.14
2019-03-31T08:42:29.575Z,48.14
2019-03-31T08:43:29.533Z,47.96
2019-03-31T08:44:29.521Z,47.78
2019-03-31T08:45:30.609Z,48.82
2019-03-31T08:46:29.501Z,48.72
2019-03-31T08:47:29.490Z,48.61
2019-03-31T08:48:29.498Z,48.64
2019-03-31T08:49:29.468Z,48.74
2019-03-31T08:50:29.452Z,48.76
2019-03-31T08:51:29.451Z,48.96
2019-03-31T08:52:29.457Z,48.86
2019-03-31T08:53:29.425Z,48.76
2019-03-31T08:54:29.416Z,48.79
2019-03-31T08:55:29.408Z,48.68
2019-03-31T08:56:29.394Z,48.58
2019-03-31T08:57:29.383Z,48.79
2019-03-31T08:58:29.391Z,48.71
2019-03-31T08:59:29.358Z,49.01
2019-03-31T09:00:29.349Z,48.60
2019-03-31T09:01:29.379Z,48.81
2019-03-31T09:02:29.345Z,48.73
2019-03-31T09:03:29.320Z,48.63
2019-03-31T09:04:29.320Z,48.73
2019-03-31T09:05:29.306Z,48.83
2019-03-31T09:06:29.290Z,48.93
2019-03-31T09:07:29.357Z,48.44
2019-03-31T09:08:29.263Z,48.75
2019-03-31T09:09:29.258Z,49.05
2019-03-31T09:10:29.340Z,48.77
2019-03-31T09:11:29.241Z,49.69
2019-03-31T09:12:29.242Z,49.18
2019-03-31T09:13:29.211Z,49.71
2019-03-31T09:14:29.212Z,49.92
2019-03-31T09:15:29.219Z,49.41
2019-03-31T09:16:29.206Z,49.95
2019-03-31T09:17:29.170Z,49.43
2019-03-31T09:18:29.161Z,49.92
2019-03-31T09:19:29.158Z,49.43
2019-03-31T09:20:29.134Z,49.33
2019-03-31T09:21:29.136Z,49.35
2019-03-31T09:22:29.120Z,49.33
2019-03-31T09:23:29.104Z,50.15
2019-03-31T09:24:29.096Z,49.84
2019-03-31T09:25:29.132Z,49.95
2019-03-31T09:26:29.071Z,49.35
2019-03-31T09:27:29.063Z,50.27
2019-03-31T09:28:29.053Z,49.35
2019-03-31T09:29:29.040Z,49.35
2019-03-31T09:30:29.050Z,49.15
2019-03-31T09:31:29.052Z,49.46
2019-03-31T09:32:29.003Z,49.27
2019-03-31T09:33:28.992Z,49.96
2019-03-31T09:34:28.987Z,50.27
2019-03-31T09:35:28.996Z,49.96
2019-03-31T09:36:28.965Z,50.30
2019-03-31T09:37:28.998Z,50.20
2019-03-31T09:38:28.947Z,49.99
2019-03-31T09:39:28.930Z,49.27
2019-03-31T09:40:28.919Z,49.27
2019-03-31T09:41:28.925Z,49.48
2019-03-31T09:42:28.902Z,49.99
2019-03-31T09:43:28.889Z,49.48
2019-03-31T09:44:30.382Z,49.79
2019-03-31T09:45:28.864Z,49.48
2019-03-31T09:46:28.872Z,49.30
2019-03-31T09:47:28.846Z,49.19
2019-03-31T09:48:28.840Z,49.40
2019-03-31T09:49:28.827Z,49.91
2019-03-31T09:50:28.817Z,50.12
2019-03-31T09:51:28.846Z,49.50
2019-03-31T09:52:28.802Z,49.71
2019-03-31T09:53:28.777Z,49.81
2019-03-31T09:54:28.766Z,49.71
2019-03-31T09:55:28.770Z,49.52
2019-03-31T09:56:28.765Z,49.83
2019-03-31T09:57:28.734Z,49.83
2019-03-31T09:58:28.814Z,49.73
2019-03-31T09:59:28.718Z,50.26
2019-03-31T10:00:28.724Z,50.06
2019-03-31T10:01:28.713Z,50.88
2019-03-31T10:02:28.708Z,50.90
2019-03-31T10:03:28.670Z,50.09
2019-03-31T10:04:28.685Z,50.29
2019-03-31T10:05:28.650Z,50.70
2019-03-31T10:06:30.431Z,50.90
2019-03-31T10:07:28.638Z,50.62
2019-03-31T10:08:28.664Z,50.62
2019-03-31T10:09:28.616Z,51.23
2019-03-31T10:10:28.602Z,50.62
2019-03-31T10:11:28.586Z,51.23
2019-03-31T10:12:28.576Z,51.26
2019-03-31T10:13:28.646Z,50.93
2019-03-31T10:14:28.557Z,50.95
2019-03-31T10:15:28.559Z,51.56
2019-03-31T10:16:28.535Z,51.15
2019-03-31T10:17:28.520Z,50.64
2019-03-31T10:18:28.531Z,50.85
2019-03-31T10:19:28.502Z,50.95
2019-03-31T10:20:31.259Z,50.34
2019-03-31T10:21:28.491Z,50.13
2019-03-31T10:22:28.470Z,50.56
2019-03-31T10:23:28.474Z,50.54
2019-03-31T10:24:28.444Z,50.95
2019-03-31T10:25:28.434Z,50.13
2019-03-31T10:26:32.322Z,50.13
2019-03-31T10:27:28.416Z,50.23
2019-03-31T10:28:28.408Z,49.93
2019-03-31T10:29:28.407Z,49.93
2019-03-31T10:30:28.381Z,49.90
2019-03-31T10:31:28.379Z,49.59
2019-03-31T10:32:28.371Z,49.49
2019-03-31T10:33:28.353Z,49.80
2019-03-31T10:34:28.364Z,49.62
2019-03-31T10:35:28.329Z,50.10
2019-03-31T10:36:28.317Z,49.90
2019-03-31T10:37:28.309Z,49.29
2019-03-31T10:38:28.298Z,49.29
2019-03-31T10:39:28.329Z,50.10
2019-03-31T10:40:28.306Z,50.21
2019-03-31T10:41:30.857Z,49.49
2019-03-31T10:42:28.269Z,50.42
2019-03-31T10:43:28.245Z,50.29
2019-03-31T10:44:28.250Z,49.88
2019-03-31T10:45:28.253Z,49.67
2019-03-31T10:46:28.212Z,49.47
2019-03-31T10:47:28.205Z,49.26
2019-03-31T10:48:28.189Z,49.26
2019-03-31T10:49:28.177Z,49.88
2019-03-31T10:50:28.180Z,49.77
2019-03-31T10:51:28.175Z,48.85
2019-03-31T10:52:28.158Z,49.26
2019-03-31T10:53:28.142Z,49.26
2019-03-31T10:54:28.128Z,48.73
2019-03-31T10:55:28.118Z,49.24
2019-03-31T10:56:28.117Z,48.83
2019-03-31T10:57:28.097Z,48.93
2019-03-31T10:58:28.089Z,49.01
2019-03-31T10:59:28.076Z,49.52
2019-03-31T11:00:28.082Z,49.11
2019-03-31T11:01:28.066Z,49.04
2019-03-31T11:02:28.043Z,49.11
2019-03-31T11:03:28.035Z,48.91
2019-03-31T11:04:28.033Z,49.01
2019-03-31T11:05:28.011Z,48.27
2019-03-31T11:06:28.087Z,48.27
2019-03-31T11:07:28.033Z,48.27
2019-03-31T11:08:27.974Z,48.27
2019-03-31T11:09:28.003Z,48.68
2019-03-31T11:10:27.956Z,48.99
2019-03-31T11:11:27.968Z,48.27
2019-03-31T11:12:27.939Z,48.07
2019-03-31T11:13:27.930Z,48.58
2019-03-31T11:14:27.927Z,48.48
2019-03-31T11:15:27.899Z,48.76
2019-03-31T11:16:27.887Z,47.85
2019-03-31T11:17:27.943Z,48.46
2019-03-31T11:18:27.874Z,47.74
2019-03-31T11:19:27.858Z,48.05
2019-03-31T11:20:27.846Z,48.23
2019-03-31T11:21:27.916Z,47.92
2019-03-31T11:22:27.834Z,47.61
2019-03-31T11:23:27.890Z,48.13
2019-03-31T11:24:27.812Z,48.10
2019-03-31T11:25:29.473Z,48.21
2019-03-31T11:26:27.785Z,48.10
2019-03-31T11:27:27.774Z,48.00
2019-03-31T11:28:27.758Z,47.60
2019-03-31T11:29:27.771Z,47.98
2019-03-31T11:30:27.752Z,47.37
2019-03-31T11:31:27.754Z,46.94
2019-03-31T11:32:27.743Z,47.14
2019-03-31T12:05:57.789Z,44.85
2019-03-31T12:06:57.777Z,44.63
2019-03-31T12:07:57.764Z,44.81
2019-03-31T12:08:57.752Z,44.71
2019-03-31T12:09:57.764Z,44.60
2019-03-31T12:10:57.799Z,44.28
2019-03-31T12:11:57.727Z,44.99
2019-03-31T12:12:57.710Z,45.28
2019-03-31T12:13:57.700Z,44.56
2019-03-31T12:15:00.743Z,43.93
2019-03-31T12:15:57.697Z,44.04
2019-03-31T12:16:57.672Z,44.01
2019-03-31T12:17:57.669Z,43.89
2019-03-31T12:18:57.647Z,43.99
2019-03-31T12:19:57.636Z,44.10
2019-03-31T12:20:57.636Z,44.18
2019-03-31T12:21:57.614Z,44.07
2019-03-31T12:22:57.617Z,43.95
2019-03-31T12:23:57.599Z,43.35
2019-03-31T12:24:57.588Z,43.52
2019-03-31T12:25:57.639Z,43.41
2019-03-31T12:26:57.567Z,44.32
2019-03-31T12:27:57.549Z,42.90
2019-03-31T12:28:57.547Z,43.59
2019-03-31T12:29:57.538Z,43.59
2019-03-31T12:30:57.538Z,43.77
2019-03-31T12:31:57.572Z,43.37
2019-03-31T12:32:57.498Z,43.46
2019-03-31T12:33:57.488Z,43.04
2019-03-31T12:34:57.507Z,41.99
2019-03-31T12:35:57.468Z,42.19
2019-03-31T12:36:57.489Z,42.19
2019-03-31T12:37:57.451Z,41.97
2019-03-31T12:38:57.431Z,41.75
2019-03-31T12:39:57.422Z,42.38
2019-03-31T12:40:57.443Z,42.47
2019-03-31T12:41:57.421Z,42.78
2019-03-31T12:42:57.393Z,42.98
2019-03-31T12:43:57.382Z,42.70
2019-03-31T12:44:57.365Z,42.78
2019-03-31T12:45:57.444Z,42.05
2019-03-31T12:46:57.346Z,42.01
2019-03-31T12:48:00.862Z,42.11
2019-03-31T12:48:57.341Z,42.11
2019-03-31T12:49:57.332Z,41.97
2019-03-31T12:50:57.300Z,41.57
2019-03-31T12:51:57.320Z,41.77
2019-03-31T12:52:57.301Z,41.43
2019-03-31T12:53:57.268Z,40.73
2019-03-31T12:54:57.263Z,40.83
2019-03-31T12:56:00.423Z,40.91
2019-03-31T12:56:57.240Z,40.79
2019-03-31T12:57:57.243Z,40.69
2019-03-31T12:58:57.248Z,41.09
2019-03-31T12:59:57.201Z,41.31
2019-03-31T13:00:57.198Z,42.44
2019-03-31T13:01:57.185Z,41.65
2019-03-31T13:02:57.173Z,41.87
2019-03-31T13:03:57.180Z,42.90
2019-03-31T13:04:57.211Z,43.82
2019-03-31T13:05:57.147Z,43.62
2019-03-31T13:06:57.130Z,43.54
2019-03-31T13:07:57.171Z,43.95
2019-03-31T13:08:57.167Z,43.87
2019-03-31T13:09:57.119Z,43.66
2019-03-31T13:10:57.087Z,43.57
2019-03-31T13:11:57.078Z,43.14
2019-03-31T13:12:57.066Z,44.05
2019-03-31T13:13:57.073Z,42.84
2019-03-31T13:14:57.047Z,43.82
2019-03-31T13:15:57.037Z,42.61
2019-03-31T13:16:57.037Z,42.90
2019-03-31T13:17:57.012Z,43.10
2019-03-31T13:18:57.032Z,42.90
2019-03-31T13:19:56.994Z,42.70
2019-03-31T13:20:56.983Z,42.88
2019-03-31T13:21:56.976Z,42.60
2019-03-31T13:22:56.965Z,42.88
2019-03-31T13:23:56.960Z,43.08
2019-03-31T13:24:56.950Z,43.51
2019-03-31T13:25:57.020Z,43.80
2019-03-31T13:26:56.917Z,43.51
2019-03-31T13:27:56.915Z,43.40
2019-03-31T13:28:56.895Z,43.60
2019-03-31T13:29:56.925Z,43.10
2019-03-31T13:30:56.875Z,43.62
2019-03-31T13:31:56.860Z,43.62
2019-03-31T13:32:56.853Z,43.12
2019-03-31T13:33:56.848Z,43.22
2019-03-31T13:34:56.844Z,43.65
2019-03-31T13:35:56.857Z,43.95
2019-03-31T13:36:56.804Z,43.65
2019-03-31T13:38:09.952Z,43.57
2019-03-31T13:38:57.791Z,43.87
2019-03-31T13:39:56.778Z,44.17
2019-03-31T13:40:56.784Z,43.77
2019-03-31T13:41:56.796Z,43.87
2019-03-31T13:42:56.744Z,43.77
2019-03-31T13:43:56.731Z,43.77
2019-03-31T13:44:56.718Z,44.07
2019-03-31T13:45:59.956Z,43.85
2019-03-31T13:46:56.727Z,43.54
2019-03-31T13:47:58.643Z,43.44
2019-03-31T13:48:56.678Z,43.74
2019-03-31T13:49:56.667Z,43.65
2019-03-31T13:50:56.657Z,43.65
2019-03-31T13:51:56.649Z,43.54
2019-03-31T13:52:56.654Z,43.74
2019-03-31T13:53:56.671Z,43.95
2019-03-31T13:54:56.610Z,43.85
2019-03-31T13:55:56.604Z,43.65
2019-03-31T13:56:57.066Z,44.13
2019-03-31T13:57:58.002Z,43.44
2019-03-31T13:58:56.570Z,43.85
2019-03-31T13:59:56.569Z,44.15
2019-03-31T14:00:57.369Z,43.95
2019-03-31T14:01:59.958Z,43.54
2019-03-31T14:02:56.528Z,44.35
2019-03-31T14:03:56.533Z,44.57
2019-03-31T14:04:56.520Z,44.27
2019-03-31T14:05:56.492Z,44.27
2019-03-31T14:06:56.512Z,44.47
2019-03-31T14:07:56.591Z,44.19
2019-03-31T14:08:56.474Z,43.79
2019-03-31T14:09:56.452Z,44.59
2019-03-31T14:10:56.439Z,45.20
2019-03-31T14:11:56.436Z,45.20
2019-03-31T14:12:56.420Z,45.50
2019-03-31T14:13:56.411Z,45.00
2019-03-31T14:14:56.416Z,44.92
2019-03-31T14:15:56.380Z,45.12
2019-03-31T14:16:56.371Z,45.14
2019-03-31T14:17:56.378Z,44.94
2019-03-31T14:18:56.353Z,45.87
2019-03-31T14:19:56.367Z,45.87
2019-03-31T14:20:56.335Z,45.87
2019-03-31T14:21:56.332Z,45.67
2019-03-31T14:22:56.309Z,45.37
2019-03-31T14:23:56.301Z,45.77
2019-03-31T14:24:56.288Z,45.89
2019-03-31T14:25:56.291Z,46.09
2019-03-31T14:26:56.262Z,46.09
2019-03-31T14:27:56.255Z,45.69
2019-03-31T14:28:56.241Z,46.09
2019-03-31T14:29:56.258Z,45.41
2019-03-31T14:30:56.229Z,45.81
2019-03-31T14:31:56.216Z,46.72
2019-03-31T14:32:56.203Z,46.62
2019-03-31T14:33:56.186Z,45.51
2019-03-31T14:34:56.174Z,45.61
2019-03-31T14:35:56.176Z,45.41
2019-03-31T14:36:56.160Z,46.01
2019-03-31T14:37:56.201Z,46.01
2019-03-31T14:38:56.137Z,45.71
2019-03-31T14:39:56.136Z,45.69
2019-03-31T14:40:56.128Z,45.69
2019-03-31T14:41:56.119Z,45.69
2019-03-31T14:42:56.092Z,45.69
2019-03-31T14:43:56.078Z,46.22
2019-03-31T14:44:56.066Z,46.83
2019-03-31T14:45:56.098Z,46.62
2019-03-31T14:46:56.049Z,46.62
2019-03-31T14:47:56.030Z,46.75
2019-03-31T14:48:56.017Z,46.44
2019-03-31T14:49:56.007Z,46.64
2019-03-31T14:50:56.100Z,46.54
2019-03-31T14:51:56.008Z,46.54
2019-03-31T14:52:55.982Z,46.84
2019-03-31T14:53:55.963Z,46.84
2019-03-31T14:54:56.092Z,47.35
2019-03-31T14:55:55.995Z,46.22
2019-03-31T14:56:55.954Z,46.62
2019-03-31T14:57:55.929Z,46.44
2019-03-31T14:58:56.046Z,47.15
2019-03-31T14:59:55.898Z,46.75
2019-03-31T15:00:55.893Z,46.44
2019-03-31T15:01:55.880Z,46.87
2019-03-31T15:02:55.892Z,46.56
2019-03-31T15:03:55.862Z,46.56
2019-03-31T15:04:55.864Z,46.44
2019-03-31T15:05:55.843Z,46.54
2019-03-31T15:06:55.845Z,46.64
2019-03-31T15:07:58.488Z,46.75
2019-03-31T15:08:55.810Z,46.84
2019-03-31T15:09:55.806Z,46.54
2019-03-31T15:10:55.784Z,46.64
2019-03-31T15:11:55.766Z,46.32
2019-03-31T15:12:55.826Z,46.62
2019-03-31T15:13:55.776Z,45.71
2019-03-31T15:14:55.738Z,45.51
2019-03-31T15:15:55.729Z,45.41
2019-03-31T15:16:55.727Z,46.64
2019-03-31T15:17:55.726Z,45.94
2019-03-31T15:18:55.708Z,46.24
2019-03-31T15:19:55.697Z,47.15
2019-03-31T15:20:55.687Z,47.35
2019-03-31T15:21:55.665Z,47.23
2019-03-31T15:22:55.648Z,46.54
2019-03-31T15:23:55.761Z,46.84
2019-03-31T15:24:55.623Z,46.64
2019-03-31T15:25:55.614Z,46.62
2019-03-31T15:26:55.605Z,46.64
2019-03-31T15:27:55.608Z,46.62
2019-03-31T15:28:55.586Z,47.05
2019-03-31T15:29:55.587Z,46.54
2019-03-31T15:30:55.561Z,46.54
2019-03-31T15:31:55.581Z,46.54
2019-03-31T15:32:55.537Z,46.54
2019-03-31T15:33:55.529Z,46.54
2019-03-31T15:34:55.577Z,46.84
2019-03-31T15:35:55.517Z,46.64
2019-03-31T15:36:55.547Z,46.54
2019-03-31T15:37:55.487Z,46.97
2019-03-31T15:39:08.120Z,46.97
2019-03-31T15:39:56.483Z,46.77
2019-03-31T15:40:55.458Z,46.97
2019-03-31T15:41:55.514Z,47.07
2019-03-31T15:42:55.433Z,46.77
2019-03-31T15:43:55.457Z,46.67
2019-03-31T15:44:55.435Z,46.67
2019-03-31T17:36:32.031Z,52.21
2019-03-31T19:39:11.539Z,53.07
2019-03-31T19:40:09.363Z,53.79
2019-03-31T19:51:32.657Z,53.28
2019-03-31T20:24:32.270Z,53.61
2019-03-31T20:29:36.856Z,53.63
2019-03-31T20:30:36.768Z,53.63
2019-03-31T20:31:36.820Z,53.33
2019-03-31T20:32:37.317Z,53.30
2019-03-31T20:33:36.727Z,52.91
2019-03-31T20:44:41.994Z,53.63
2019-03-31T20:45:42.019Z,53.41
2019-03-31T20:46:41.979Z,53.53
2019-03-31T20:48:40.273Z,53.74
2019-03-31T20:55:16.112Z,53.22
2019-03-31T21:49:14.966Z,53.53
2019-03-31T21:56:46.180Z,53.42
2019-03-31T22:58:33.084Z,53.34
2019-03-31T22:59:32.962Z,53.57
2019-03-31T23:00:32.962Z,53.86
2019-03-31T23:01:33.007Z,53.75
2019-03-31T23:02:32.960Z,53.65
2019-03-31T23:03:32.939Z,53.55
2019-03-31T23:04:32.981Z,53.65
2019-03-31T23:05:32.927Z,53.34
2019-03-31T23:06:32.888Z,53.55
2019-03-31T23:07:32.891Z,53.34
2019-03-31T23:08:32.905Z,53.55
2019-03-31T23:09:34.502Z,53.44
2019-03-31T23:10:32.874Z,53.65
2019-03-31T23:11:32.927Z,53.23
2019-03-31T23:12:32.838Z,53.75
2019-03-31T23:13:32.818Z,53.83
2019-03-31T23:14:32.822Z,53.83
2019-03-31T23:15:32.834Z,53.73
2019-03-31T23:16:32.804Z,53.31
2019-03-31T23:17:32.792Z,53.83
2019-03-31T23:18:32.786Z,53.83
2019-03-31T23:19:32.787Z,53.83
2019-03-31T23:20:32.770Z,53.83
2019-03-31T23:21:32.801Z,53.42
2019-03-31T23:22:32.730Z,53.13
2019-03-31T23:23:32.776Z,53.11
2019-03-31T23:24:32.721Z,53.11
2019-03-31T23:25:32.738Z,53.63
2019-03-31T23:26:32.694Z,53.44
2019-03-31T23:27:32.706Z,53.31
2019-03-31T23:28:32.664Z,53.31
2019-03-31T23:29:32.681Z,53.00
